createdAt,value
2016-11-18T00:00:37.977Z,76.06
2016-11-18T00:01:51.691Z,76.16
2016-11-18T00:03:04.375Z,76.35
2016-11-18T00:04:18.073Z,76.25
2016-11-18T00:05:31.771Z,76.16
2016-11-18T00:06:45.469Z,76.25
2016-11-18T00:07:59.211Z,76.25
2016-11-18T00:09:12.970Z,76.35
2016-11-18T00:10:26.763Z,76.35
2016-11-18T00:11:40.721Z,75.68
2016-11-18T00:12:54.451Z,76.25
2016-11-18T00:14:08.380Z,76.16
2016-11-18T00:15:22.136Z,76.25
2016-11-18T00:16:35.949Z,75.87
2016-11-18T00:17:49.639Z,75.78
2016-11-18T00:19:03.358Z,75.68
2016-11-18T00:20:17.057Z,75.87
2016-11-18T00:21:30.749Z,76.06
2016-11-18T00:22:44.470Z,75.96
2016-11-18T00:23:58.175Z,75.4
2016-11-18T00:25:11.869Z,75.78
2016-11-18T00:26:25.575Z,75.49
2016-11-18T00:27:39.290Z,75.3
2016-11-18T00:28:53.291Z,75.3
2016-11-18T00:30:07.027Z,74.73
2016-11-18T00:31:20.756Z,74.63
2016-11-18T00:32:34.464Z,74.63
2016-11-18T00:33:48.174Z,74.35
2016-11-18T00:35:02.093Z,74.16
2016-11-18T00:36:15.795Z,74.25
2016-11-18T00:37:29.506Z,74.44
2016-11-18T00:38:43.249Z,74.06
2016-11-18T00:39:56.960Z,73.96
2016-11-18T00:41:10.647Z,73.58
2016-11-18T00:42:24.356Z,73.49
2016-11-18T00:43:38.053Z,73.3
2016-11-18T00:44:51.790Z,73.39
2016-11-18T00:46:05.501Z,73.43
2016-11-18T00:47:19.194Z,73.33
2016-11-18T00:48:32.931Z,73.39
2016-11-18T00:49:46.699Z,73.39
2016-11-18T00:51:00.411Z,73.33
2016-11-18T00:52:14.107Z,73.49
2016-11-18T00:53:26.532Z,73.33
2016-11-18T00:54:39.001Z,73.21
2016-11-18T00:55:52.722Z,73.14
2016-11-18T00:57:06.448Z,73.39
2016-11-18T00:58:20.149Z,72.96
2016-11-18T00:59:33.887Z,73.11
2016-11-18T01:00:47.594Z,72.96
2016-11-18T01:02:01.335Z,73.33
2016-11-18T01:03:15.101Z,73.3
2016-11-18T01:04:29.036Z,73.11
2016-11-18T01:05:42.756Z,73.49
2016-11-18T01:06:56.462Z,73.43
2016-11-18T01:08:10.161Z,73.21
2016-11-18T01:09:23.872Z,73.49
2016-11-18T01:10:36.444Z,73.58
2016-11-18T01:11:50.136Z,73.21
2016-11-18T01:13:02.558Z,72.82
2016-11-18T01:14:16.256Z,73.3
2016-11-18T01:15:30.205Z,73.3
2016-11-18T01:16:43.936Z,73.01
2016-11-18T01:17:57.636Z,73.05
2016-11-18T01:19:11.366Z,72.72
2016-11-18T01:20:25.053Z,72.76
2016-11-18T01:21:38.778Z,72.82
2016-11-18T01:22:51.339Z,72.72
2016-11-18T01:24:05.064Z,72.38
2016-11-18T01:25:18.767Z,72.16
2016-11-18T01:26:32.459Z,71.58
2016-11-18T01:27:46.163Z,72
2016-11-18T01:28:59.848Z,71.96
2016-11-18T01:30:13.586Z,71.77
2016-11-18T01:31:26.001Z,71.81
2016-11-18T01:32:38.488Z,71.52
2016-11-18T01:33:52.188Z,71.43
2016-11-18T01:35:05.906Z,71.52
2016-11-18T01:36:19.616Z,71.43
2016-11-18T01:37:33.388Z,71.72
2016-11-18T01:38:47.131Z,71.43
2016-11-18T01:40:00.934Z,71.43
2016-11-18T01:41:14.674Z,71.62
2016-11-18T01:42:28.414Z,71.43
2016-11-18T01:43:42.127Z,71.62
2016-11-18T01:44:54.596Z,71.81
2016-11-18T01:46:08.293Z,71.14
2016-11-18T01:47:22.078Z,71.23
2016-11-18T01:48:35.789Z,71.72
2016-11-18T01:49:49.491Z,71.72
2016-11-18T01:51:03.186Z,71.72
2016-11-18T01:52:17.150Z,71.04
2016-11-18T01:53:29.641Z,71.14
2016-11-18T01:54:43.355Z,70.95
2016-11-18T01:55:55.823Z,71.62
2016-11-18T01:57:09.635Z,71.43
2016-11-18T01:58:23.364Z,72.09
2016-11-18T01:59:37.059Z,72.09
2016-11-18T02:00:50.761Z,71.72
2016-11-18T02:02:04.457Z,71.52
2016-11-18T02:03:18.165Z,71.62
2016-11-18T02:04:31.856Z,71.62
2016-11-18T02:05:45.573Z,71.62
2016-11-18T02:06:59.300Z,71.52
2016-11-18T02:08:13.242Z,71.72
2016-11-18T02:09:26.979Z,71.04
2016-11-18T02:10:40.677Z,71.04
2016-11-18T02:11:54.413Z,71.14
2016-11-18T02:13:08.119Z,71.04
2016-11-18T02:14:21.824Z,71.14
2016-11-18T02:15:35.539Z,70.95
2016-11-18T02:16:49.240Z,71.43
2016-11-18T02:18:02.996Z,71.33
2016-11-18T02:19:15.459Z,71.62
2016-11-18T02:20:27.888Z,72.09
2016-11-18T02:21:41.602Z,71.91
2016-11-18T02:22:54.095Z,71.96
2016-11-18T02:24:07.794Z,71.87
2016-11-18T02:25:21.483Z,71.77
2016-11-18T02:26:35.201Z,71.23
2016-11-18T02:27:48.903Z,71.3
2016-11-18T02:29:01.327Z,71.91
2016-11-18T02:30:15.052Z,72.06
2016-11-18T02:31:28.802Z,71.81
2016-11-18T02:32:42.492Z,72
2016-11-18T02:33:56.216Z,71.48
2016-11-18T02:35:09.916Z,71.48
2016-11-18T02:36:23.618Z,71.58
2016-11-18T02:37:37.336Z,72
2016-11-18T02:38:51.060Z,72.09
2016-11-18T02:40:04.785Z,72
2016-11-18T02:41:18.484Z,71.87
2016-11-18T02:42:32.184Z,72.06
2016-11-18T02:43:44.584Z,72.09
2016-11-18T02:44:58.338Z,72.09
2016-11-18T02:46:12.041Z,71.81
2016-11-18T02:47:25.761Z,71.91
2016-11-18T02:48:39.458Z,71.72
2016-11-18T02:49:53.149Z,72.48
2016-11-18T02:51:06.853Z,72.57
2016-11-18T02:52:19.284Z,72.28
2016-11-18T02:53:33.139Z,72.28
2016-11-18T02:54:45.552Z,72.19
2016-11-18T02:55:59.286Z,72.09
2016-11-18T02:57:12.994Z,72.19
2016-11-18T02:58:26.694Z,72.28
2016-11-18T02:59:40.564Z,72.48
2016-11-18T03:00:54.311Z,72.38
2016-11-18T03:02:08.007Z,72.38
2016-11-18T03:03:21.726Z,72.48
2016-11-18T03:04:35.482Z,72.57
2016-11-18T03:05:47.886Z,72.38
2016-11-18T03:07:01.745Z,72.76
2016-11-18T03:08:15.469Z,72.86
2016-11-18T03:09:29.191Z,72.86
2016-11-18T03:10:42.878Z,73.05
2016-11-18T03:11:55.313Z,72.67
2016-11-18T03:13:09.127Z,72.76
2016-11-18T03:14:21.590Z,72.76
2016-11-18T03:15:34.103Z,72.76
2016-11-18T03:16:47.821Z,72.57
2016-11-18T03:18:00.225Z,72.38
2016-11-18T03:19:14.086Z,72.28
2016-11-18T03:20:27.786Z,72.48
2016-11-18T03:21:41.482Z,72.09
2016-11-18T03:22:55.181Z,72.28
2016-11-18T03:24:07.809Z,72.38
2016-11-18T03:25:21.509Z,72.19
2016-11-18T03:26:35.222Z,72.48
2016-11-18T03:27:48.918Z,72.19
2016-11-18T03:29:02.858Z,72.38
2016-11-18T03:30:16.641Z,72.67
2016-11-18T03:31:30.346Z,72.57
2016-11-18T03:32:44.120Z,72.38
2016-11-18T03:33:57.816Z,72.48
2016-11-18T03:35:11.580Z,72.28
2016-11-18T03:36:25.270Z,72.38
2016-11-18T03:37:38.979Z,72.38
2016-11-18T03:38:52.677Z,72.67
2016-11-18T03:40:06.380Z,72.28
2016-11-18T03:41:20.075Z,72.76
2016-11-18T03:42:33.860Z,73.24
2016-11-18T03:43:47.541Z,72.96
2016-11-18T03:45:01.291Z,73.14
2016-11-18T03:46:15.248Z,73.43
2016-11-18T03:47:28.949Z,73.14
2016-11-18T03:48:42.677Z,73.62
2016-11-18T03:49:56.370Z,73.52
2016-11-18T03:51:10.069Z,74.01
2016-11-18T03:52:23.758Z,73.72
2016-11-18T03:53:37.473Z,73.62
2016-11-18T03:54:51.172Z,73.81
2016-11-18T03:56:04.889Z,73.81
2016-11-18T03:57:18.582Z,73.62
2016-11-18T03:58:32.302Z,73.52
2016-11-18T03:59:44.750Z,73.33
2016-11-18T04:00:58.465Z,73.52
2016-11-18T04:02:12.161Z,73.81
2016-11-18T04:03:25.874Z,73.81
2016-11-18T04:04:38.286Z,74.1
2016-11-18T04:05:52.086Z,74.48
2016-11-18T04:07:05.839Z,74.38
2016-11-18T04:08:19.544Z,74.57
2016-11-18T04:09:33.259Z,74.67
2016-11-18T04:10:46.942Z,74.77
2016-11-18T04:12:00.641Z,74.77
2016-11-18T04:13:14.334Z,74.48
2016-11-18T04:14:28.031Z,74.48
2016-11-18T04:15:41.776Z,74.77
2016-11-18T04:16:55.535Z,74.67
2016-11-18T04:18:09.478Z,74.86
2016-11-18T04:19:23.179Z,74.86
2016-11-18T04:20:35.581Z,75.34
2016-11-18T04:21:49.495Z,75.53
2016-11-18T04:23:03.232Z,75.62
2016-11-18T04:24:16.929Z,75.68
2016-11-18T04:25:30.633Z,75.78
2016-11-18T04:26:44.336Z,75.81
2016-11-18T04:27:56.759Z,75.59
2016-11-18T04:29:10.616Z,75.59
2016-11-18T04:30:24.318Z,75.59
2016-11-18T04:31:38.042Z,75.81
2016-11-18T04:32:51.738Z,75.43
2016-11-18T04:34:05.436Z,75.62
2016-11-18T04:35:19.127Z,75.72
2016-11-18T04:36:32.818Z,75.81
2016-11-18T04:37:45.236Z,75.43
2016-11-18T04:38:57.849Z,75.24
2016-11-18T04:40:11.559Z,75.34
2016-11-18T04:41:25.265Z,74.96
2016-11-18T04:42:38.967Z,75.15
2016-11-18T04:43:52.717Z,74.96
2016-11-18T04:45:06.405Z,75.24
2016-11-18T04:46:20.155Z,75.15
2016-11-18T04:47:33.841Z,74.96
2016-11-18T04:48:47.654Z,74.48
2016-11-18T04:50:01.351Z,74.48
2016-11-18T04:51:15.053Z,74.96
2016-11-18T04:52:27.461Z,75.24
2016-11-18T04:53:41.179Z,75.53
2016-11-18T04:54:54.964Z,75.24
2016-11-18T04:56:08.731Z,74.86
2016-11-18T04:57:22.430Z,75.15
2016-11-18T04:58:34.836Z,75.53
2016-11-18T04:59:47.328Z,75.43
2016-11-18T05:01:01.041Z,75.4
2016-11-18T05:02:14.753Z,75.53
2016-11-18T05:03:28.473Z,75.24
2016-11-18T05:04:42.171Z,75.15
2016-11-18T05:05:55.911Z,74.86
2016-11-18T05:07:09.602Z,74.57
2016-11-18T05:08:22.027Z,74.86
2016-11-18T05:09:35.841Z,74.57
2016-11-18T05:10:49.536Z,74.67
2016-11-18T05:12:03.274Z,74.67
2016-11-18T05:13:16.972Z,74.96
2016-11-18T05:14:30.683Z,74.67
2016-11-18T05:15:44.383Z,74.96
2016-11-18T05:16:56.832Z,74.38
2016-11-18T05:18:10.580Z,74.57
2016-11-18T05:19:24.565Z,74.38
2016-11-18T05:20:38.394Z,74.96
2016-11-18T05:21:52.094Z,74.86
2016-11-18T05:23:05.851Z,74.96
2016-11-18T05:24:18.270Z,74.67
2016-11-18T05:25:31.993Z,74.48
2016-11-18T05:26:45.704Z,74.48
2016-11-18T05:27:59.413Z,74.77
2016-11-18T05:29:13.102Z,75.15
2016-11-18T05:30:26.886Z,74.73
2016-11-18T05:31:40.599Z,74.77
2016-11-18T05:32:54.302Z,74.54
2016-11-18T05:34:08.001Z,74.77
2016-11-18T05:35:21.701Z,74.96
2016-11-18T05:36:35.411Z,74.44
2016-11-18T05:37:49.127Z,74.48
2016-11-18T05:39:01.519Z,74.77
2016-11-18T05:40:15.387Z,74.63
2016-11-18T05:41:29.099Z,74.57
2016-11-18T05:42:42.821Z,74.35
2016-11-18T05:43:55.236Z,74.54
2016-11-18T05:45:09.063Z,74.38
2016-11-18T05:46:21.492Z,74.48
2016-11-18T05:47:33.906Z,74.25
2016-11-18T05:48:47.707Z,74.77
2016-11-18T05:50:01.636Z,74.92
2016-11-18T05:51:15.484Z,74.48
2016-11-18T05:52:29.274Z,74.38
2016-11-18T05:53:41.719Z,74.63
2016-11-18T05:54:55.431Z,74.1
2016-11-18T05:56:07.845Z,74.38
2016-11-18T05:57:21.545Z,74.38
2016-11-18T05:58:35.260Z,74.35
2016-11-18T05:59:48.961Z,74.1
2016-11-18T06:01:02.882Z,74.19
2016-11-18T06:02:16.725Z,74.25
2016-11-18T06:03:29.151Z,74.29
2016-11-18T06:04:42.889Z,74.35
2016-11-18T06:05:56.641Z,74.35
2016-11-18T06:07:10.590Z,74.48
2016-11-18T06:08:23.009Z,74.54
2016-11-18T06:09:36.748Z,74.48
2016-11-18T06:10:50.470Z,74.54
2016-11-18T06:12:04.258Z,74.63
2016-11-18T06:13:17.961Z,74.35
2016-11-18T06:14:31.662Z,74.35
2016-11-18T06:15:45.419Z,74.44
2016-11-18T06:16:59.119Z,74.29
2016-11-18T06:18:12.853Z,74.1
2016-11-18T06:19:26.593Z,74.29
2016-11-18T06:20:40.356Z,74.38
2016-11-18T06:21:54.073Z,74.35
2016-11-18T06:23:07.788Z,74.1
2016-11-18T06:24:21.728Z,73.91
2016-11-18T06:25:35.439Z,73.72
2016-11-18T06:26:47.862Z,73.33
2016-11-18T06:28:01.683Z,73.52
2016-11-18T06:29:15.404Z,73.24
2016-11-18T06:30:29.112Z,72.86
2016-11-18T06:31:42.812Z,72.09
2016-11-18T06:32:56.537Z,71.91
2016-11-18T06:34:10.468Z,71.52
2016-11-18T06:35:24.381Z,71.52
2016-11-18T06:36:38.080Z,71.33
2016-11-18T06:37:51.822Z,70.95
2016-11-18T06:39:05.543Z,71.14
2016-11-18T06:40:19.239Z,71.52
2016-11-18T06:41:32.953Z,71.43
2016-11-18T06:42:46.939Z,71.56
2016-11-18T06:44:00.634Z,71.33
2016-11-18T06:45:14.332Z,72
2016-11-18T06:46:28.039Z,71.91
2016-11-18T06:47:41.782Z,72.28
2016-11-18T06:48:55.488Z,72.48
2016-11-18T06:50:09.183Z,72.67
2016-11-18T06:51:23.017Z,72.76
2016-11-18T06:52:36.730Z,73.05
2016-11-18T06:53:50.444Z,73.14
2016-11-18T06:55:04.170Z,73.72
2016-11-18T06:56:16.586Z,73.62
2016-11-18T06:57:30.305Z,73.33
2016-11-18T06:58:44.171Z,73.62
2016-11-18T06:59:57.884Z,73.91
2016-11-18T07:01:11.604Z,73.94
2016-11-18T07:02:24.016Z,73.75
2016-11-18T07:03:37.713Z,73.72
2016-11-18T07:04:51.409Z,74.29
2016-11-18T07:06:05.146Z,74.01
2016-11-18T07:07:19.078Z,74.57
2016-11-18T07:08:32.795Z,74.19
2016-11-18T07:09:46.500Z,74.67
2016-11-18T07:10:57.635Z,74.77
2016-11-18T07:12:11.342Z,74.48
2016-11-18T07:13:25.044Z,74.57
2016-11-18T07:14:38.739Z,74.38
2016-11-18T07:15:51.169Z,74.48
2016-11-18T07:17:04.900Z,74.29
2016-11-18T07:18:18.778Z,74.1
2016-11-18T07:19:32.479Z,74.1
2016-11-18T07:20:46.177Z,74.29
2016-11-18T07:21:59.927Z,74.57
2016-11-18T07:23:13.640Z,74.32
2016-11-18T07:24:26.130Z,74.29
2016-11-18T07:25:39.821Z,74.29
2016-11-18T07:26:53.550Z,74.52
2016-11-18T07:28:07.259Z,74.01
2016-11-18T07:29:20.969Z,74.32
2016-11-18T07:30:34.670Z,74.38
2016-11-18T07:31:47.093Z,74.29
2016-11-18T07:32:59.551Z,74.32
2016-11-18T07:34:13.273Z,74.29
2016-11-18T07:35:27.029Z,74.13
2016-11-18T07:36:40.770Z,74.04
2016-11-18T07:37:54.475Z,73.85
2016-11-18T07:39:08.171Z,73.85
2016-11-18T07:40:21.884Z,73.47
2016-11-18T07:41:35.898Z,73.18
2016-11-18T07:42:49.628Z,73.08
2016-11-18T07:44:03.331Z,73.08
2016-11-18T07:45:17.028Z,72.89
2016-11-18T07:46:30.734Z,73.28
2016-11-18T07:47:44.425Z,73.28
2016-11-18T07:48:56.906Z,72.71
2016-11-18T07:50:10.609Z,73.08
2016-11-18T07:51:24.316Z,72.32
2016-11-18T07:52:38.020Z,72.51
2016-11-18T07:53:51.733Z,72.42
2016-11-18T07:55:05.427Z,71.56
2016-11-18T07:56:19.144Z,71.21
2016-11-18T07:57:32.833Z,71.21
2016-11-18T07:58:46.531Z,70.92
2016-11-18T08:00:00.228Z,71.12
2016-11-18T08:01:13.922Z,71.21
2016-11-18T08:02:27.670Z,70.73
2016-11-18T08:03:41.374Z,70.45
2016-11-18T08:04:55.299Z,70.83
2016-11-18T08:06:09.009Z,70.45
2016-11-18T08:07:22.717Z,70.16
2016-11-18T08:08:35.129Z,69.68
2016-11-18T08:09:48.833Z,68.82
2016-11-18T08:11:02.588Z,68.48
2016-11-18T08:12:16.355Z,68.48
2016-11-18T08:13:28.762Z,65.33
2016-11-18T08:14:42.477Z,60.71
2016-11-18T08:15:56.176Z,55.15
2016-11-18T08:17:09.866Z,51.59
2016-11-18T08:18:23.570Z,47.99
2016-11-18T08:19:37.271Z,45.73
2016-11-18T08:20:50.974Z,42.87
2016-11-18T08:22:04.724Z,40.34
2016-11-18T08:23:17.156Z,41.41
2016-11-18T08:24:30.854Z,46.55
2016-11-18T08:25:44.548Z,51.06
2016-11-18T08:26:57.218Z,54.37
2016-11-18T08:28:10.943Z,53.41
2016-11-18T08:29:24.903Z,51.23
2016-11-18T08:30:37.317Z,48.69
2016-11-18T08:31:51.025Z,47.77
2016-11-18T08:33:04.738Z,51.31
2016-11-18T08:34:18.440Z,55.62
2016-11-18T08:35:31.007Z,62.07
2016-11-18T08:36:44.937Z,66.76
2016-11-18T08:37:59.085Z,70.04
2016-11-18T08:39:12.801Z,73.25
2016-11-18T08:40:26.535Z,75.76
2016-11-18T08:41:40.278Z,77.82
2016-11-18T08:42:54.000Z,79.59
2016-11-18T08:44:06.499Z,82.21
2016-11-18T08:45:18.914Z,84.12
2016-11-18T08:46:31.385Z,84.79
2016-11-18T08:47:45.128Z,85.46
2016-11-18T08:48:58.832Z,85.8
2016-11-18T08:50:12.573Z,86.46
2016-11-18T08:51:26.303Z,87.32
2016-11-18T08:52:40.049Z,86.46
2016-11-18T08:53:52.476Z,86.46
2016-11-18T08:55:06.170Z,87.03
2016-11-18T08:56:19.872Z,87.51
2016-11-18T08:57:33.616Z,87.98
2016-11-18T08:58:47.313Z,86.94
2016-11-18T09:00:01.017Z,87.13
2016-11-18T09:01:14.733Z,86.84
2016-11-18T09:02:28.453Z,85.7
2016-11-18T09:03:40.881Z,85.6
2016-11-18T09:04:54.594Z,85.51
2016-11-18T09:06:08.301Z,83.89
2016-11-18T09:07:22.003Z,84.27
2016-11-18T09:08:35.730Z,85.41
2016-11-18T09:09:48.172Z,84.36
2016-11-18T09:11:01.932Z,86.36
2016-11-18T09:12:15.642Z,85.51
2016-11-18T09:13:29.346Z,87.51
2016-11-18T09:14:43.055Z,86.94
2016-11-18T09:15:57.240Z,88.56
2016-11-18T09:17:09.705Z,89.13
2016-11-18T09:18:22.140Z,86.84
2016-11-18T09:19:36.324Z,86.55
2016-11-18T09:20:50.015Z,86.18
2016-11-18T09:22:02.421Z,86.18
2016-11-18T09:23:14.875Z,86.46
2016-11-18T09:24:28.644Z,87.32
2016-11-18T09:25:42.331Z,87.51
2016-11-18T09:26:56.040Z,87.41
2016-11-18T09:28:09.804Z,87.41
2016-11-18T09:29:23.494Z,86.61
2016-11-18T09:30:37.197Z,86.18
2016-11-18T09:31:50.893Z,85.89
2016-11-18T09:33:04.632Z,86.13
2016-11-18T09:34:18.330Z,87.75
2016-11-18T09:35:32.064Z,88.04
2016-11-18T09:36:45.827Z,87.18
2016-11-18T09:37:59.550Z,87.65
2016-11-18T09:39:13.305Z,88.42
2016-11-18T09:40:27.038Z,89.65
2016-11-18T09:41:40.735Z,90.32
2016-11-18T09:42:54.446Z,90.61
2016-11-18T09:44:06.857Z,90.22
2016-11-18T09:45:20.726Z,90.8
2016-11-18T09:46:34.435Z,91.03
2016-11-18T09:47:48.146Z,91.42
2016-11-18T09:49:00.562Z,91.61
2016-11-18T09:50:14.283Z,92.65
2016-11-18T09:51:26.697Z,93.04
2016-11-18T09:52:40.412Z,93.7
2016-11-18T09:53:54.132Z,94.18
2016-11-18T09:55:07.843Z,94.37
2016-11-18T09:56:21.586Z,94.18
2016-11-18T09:57:35.325Z,94.18
2016-11-18T09:58:47.755Z,94.18
2016-11-18T10:00:01.693Z,93.98
2016-11-18T10:01:14.159Z,93.32
2016-11-18T10:02:27.890Z,93.32
2016-11-18T10:03:41.587Z,91.89
2016-11-18T10:04:55.298Z,91.42
2016-11-18T10:06:09.061Z,90.37
2016-11-18T10:07:22.766Z,89.51
2016-11-18T10:08:36.465Z,89.04
2016-11-18T10:09:50.211Z,89.61
2016-11-18T10:11:03.944Z,89.51
2016-11-18T10:12:17.796Z,89.51
2016-11-18T10:13:31.508Z,90.37
2016-11-18T10:14:45.241Z,89.04
2016-11-18T10:15:58.974Z,89.89
2016-11-18T10:17:12.705Z,89.51
2016-11-18T10:18:26.418Z,89.04
2016-11-18T10:19:40.112Z,89.7
2016-11-18T10:20:52.626Z,89.14
2016-11-18T10:22:06.340Z,88.66
2016-11-18T10:23:20.040Z,88.85
2016-11-18T10:24:33.744Z,88.56
2016-11-18T10:25:47.446Z,87.99
2016-11-18T10:27:01.143Z,87.99
2016-11-18T10:28:14.846Z,86.94
2016-11-18T10:29:28.534Z,85.71
2016-11-18T10:30:42.253Z,85.99
2016-11-18T10:31:55.970Z,85.71
2016-11-18T10:33:09.665Z,83.42
2016-11-18T10:34:23.430Z,84.04
2016-11-18T10:35:37.487Z,83.71
2016-11-18T10:36:51.178Z,83.94
2016-11-18T10:38:04.957Z,82.61
2016-11-18T10:39:18.664Z,83.47
2016-11-18T10:40:32.471Z,83.18
2016-11-18T10:41:46.280Z,81.95
2016-11-18T10:42:59.998Z,81.28
2016-11-18T10:44:13.707Z,81.18
2016-11-18T10:45:27.405Z,80.42
2016-11-18T10:46:41.114Z,80.71
2016-11-18T10:47:54.844Z,81.47
2016-11-18T10:49:08.568Z,81.56
2016-11-18T10:50:22.257Z,80.61
2016-11-18T10:51:34.756Z,81.37
2016-11-18T10:52:48.452Z,82.04
2016-11-18T10:54:02.197Z,82.7
2016-11-18T10:55:15.985Z,82.61
2016-11-18T10:56:29.675Z,82.8
2016-11-18T10:57:43.387Z,82.51
2016-11-18T10:58:57.080Z,82.51
2016-11-18T11:00:10.802Z,81.37
2016-11-18T11:01:24.741Z,81.85
2016-11-18T11:02:38.443Z,81.76
2016-11-18T11:03:52.148Z,81.18
2016-11-18T11:05:05.869Z,80.52
2016-11-18T11:06:19.599Z,80.9
2016-11-18T11:07:33.323Z,80.52
2016-11-18T11:08:47.070Z,80.8
2016-11-18T11:10:00.776Z,81.28
2016-11-18T11:11:14.705Z,80.33
2016-11-18T11:12:28.428Z,79.94
2016-11-18T11:13:42.128Z,80.13
2016-11-18T11:14:55.845Z,79.94
2016-11-18T11:16:09.576Z,79.85
2016-11-18T11:17:23.265Z,79.66
2016-11-18T11:18:36.959Z,79.47
2016-11-18T11:19:50.704Z,79.09
2016-11-18T11:21:04.421Z,78.61
2016-11-18T11:22:18.199Z,78.61
2016-11-18T11:23:31.916Z,78.52
2016-11-18T11:24:45.720Z,78.04
2016-11-18T11:25:59.411Z,78.14
2016-11-18T11:27:13.119Z,78.14
2016-11-18T11:28:26.844Z,78.33
2016-11-18T11:29:40.553Z,78.23
2016-11-18T11:30:52.965Z,78.23
2016-11-18T11:32:06.734Z,77.76
2016-11-18T11:33:20.481Z,77.76
2016-11-18T11:34:32.917Z,77.42
2016-11-18T11:35:46.603Z,76.94
2016-11-18T11:36:59.013Z,76.18
2016-11-18T11:38:12.864Z,75.79
2016-11-18T11:39:26.572Z,76.08
2016-11-18T11:40:40.294Z,75.99
2016-11-18T11:41:53.989Z,75.7
2016-11-18T11:43:07.731Z,75.16
2016-11-18T11:44:21.678Z,74.21
2016-11-18T11:45:35.429Z,74.4
2016-11-18T11:46:49.168Z,73.17
2016-11-18T11:48:02.877Z,73.26
2016-11-18T11:49:16.608Z,72.78
2016-11-18T11:50:30.327Z,72.88
2016-11-18T11:51:44.025Z,73.45
2016-11-18T11:52:56.432Z,73.74
2016-11-18T11:54:10.190Z,73.65
2016-11-18T11:55:23.914Z,73.26
2016-11-18T11:56:36.571Z,73.26
2016-11-18T11:57:50.266Z,73.17
2016-11-18T11:59:03.979Z,73.26
2016-11-18T12:00:17.700Z,72.88
2016-11-18T12:01:30.588Z,72.78
2016-11-18T12:02:43.005Z,72.12
2016-11-18T12:03:56.727Z,70.69
2016-11-18T12:05:10.466Z,68.53
2016-11-18T12:06:24.423Z,64.09
2016-11-18T12:07:38.286Z,57.04
2016-11-18T12:08:51.985Z,53.3
2016-11-18T12:10:04.403Z,51.89
2016-11-18T12:11:18.151Z,54.36
2016-11-18T12:12:31.871Z,55.96
2016-11-18T12:13:47.182Z,53.89
2016-11-18T12:15:02.414Z,45.19
2016-11-18T12:16:17.668Z,39.85
2016-11-18T12:17:32.956Z,37.1
2016-11-18T12:18:48.248Z,32.54
2016-11-18T12:20:03.516Z,28.55
2016-11-18T12:21:18.789Z,27.92
2016-11-18T12:22:32.504Z,29.36
2016-11-18T12:23:46.313Z,33.36
2016-11-18T12:25:00.043Z,37.79
2016-11-18T12:26:13.762Z,42.13
2016-11-18T12:27:27.483Z,45.62
2016-11-18T12:28:41.232Z,47.61
2016-11-18T12:29:54.969Z,49.11
2016-11-18T12:31:08.690Z,51.07
2016-11-18T12:32:22.398Z,52.22
2016-11-18T12:33:36.340Z,53.25
2016-11-18T12:34:50.066Z,54.11
2016-11-18T12:36:03.774Z,53.92
2016-11-18T12:37:17.489Z,53.25
2016-11-18T12:38:31.203Z,53.16
2016-11-18T12:39:44.954Z,53.06
2016-11-18T12:40:58.663Z,54.21
2016-11-18T12:42:12.407Z,54.49
2016-11-18T12:43:26.211Z,53.7
2016-11-18T12:44:39.922Z,54.37
2016-11-18T12:45:53.669Z,54.47
2016-11-18T12:47:07.397Z,54.27
2016-11-18T12:48:21.119Z,54.18
2016-11-18T12:49:34.848Z,54.85
2016-11-18T12:50:48.617Z,55.2
2016-11-18T12:52:02.325Z,56.16
2016-11-18T12:53:16.299Z,57.18
2016-11-18T12:54:29.998Z,58.33
2016-11-18T12:55:43.715Z,58.9
2016-11-18T12:56:57.427Z,59.82
2016-11-18T12:58:11.186Z,59.82
2016-11-18T12:59:24.966Z,59.44
2016-11-18T13:00:37.382Z,59.53
2016-11-18T13:01:51.107Z,60.11
2016-11-18T13:03:04.902Z,59.92
2016-11-18T13:04:18.615Z,59.82
2016-11-18T13:05:32.342Z,60.3
2016-11-18T13:06:46.054Z,60.21
2016-11-18T13:08:00.047Z,59.44
2016-11-18T13:09:13.813Z,59.63
2016-11-18T13:10:27.519Z,58.7
2016-11-18T13:11:41.230Z,58.04
2016-11-18T13:12:55.176Z,57.75
2016-11-18T13:14:08.896Z,57.59
2016-11-18T13:15:21.312Z,57.68
2016-11-18T13:16:33.756Z,58.04
2016-11-18T13:17:47.459Z,59.09
2016-11-18T13:19:01.173Z,59.06
2016-11-18T13:20:14.968Z,58.97
2016-11-18T13:21:28.678Z,59.82
2016-11-18T13:22:42.399Z,59.73
2016-11-18T13:23:56.122Z,60.02
2016-11-18T13:25:09.833Z,60.21
2016-11-18T13:26:23.539Z,59.82
2016-11-18T13:27:37.250Z,60.49
2016-11-18T13:28:49.660Z,60.11
2016-11-18T13:30:03.370Z,60.02
2016-11-18T13:31:17.081Z,60.02
2016-11-18T13:32:29.497Z,60.39
2016-11-18T13:33:43.237Z,60.3
2016-11-18T13:34:57.224Z,60.68
2016-11-18T13:36:10.945Z,61.35
2016-11-18T13:37:24.658Z,61.54
2016-11-18T13:38:38.608Z,61.07
2016-11-18T13:39:52.303Z,61.07
2016-11-18T13:41:06.016Z,60.78
2016-11-18T13:42:19.726Z,61.25
2016-11-18T13:43:33.439Z,61.07
2016-11-18T13:44:47.176Z,61.44
2016-11-18T13:46:00.905Z,61.92
2016-11-18T13:47:14.627Z,62.3
2016-11-18T13:48:28.340Z,62.78
2016-11-18T13:49:43.824Z,63.07
2016-11-18T13:51:01.342Z,62.94
2016-11-18T13:52:18.721Z,63.8
2016-11-18T13:53:32.564Z,63.8
2016-11-18T13:54:45.010Z,63.99
2016-11-18T13:55:58.712Z,64.18
2016-11-18T13:57:12.452Z,64.47
2016-11-18T13:58:26.209Z,64.18
2016-11-18T13:59:39.947Z,64.47
2016-11-18T14:00:53.677Z,63.99
2016-11-18T14:02:07.615Z,64.37
2016-11-18T14:03:21.481Z,64.47
2016-11-18T14:04:35.206Z,64.56
2016-11-18T14:05:48.926Z,65.33
2016-11-18T14:07:02.700Z,65.8
2016-11-18T14:08:16.417Z,65.89
2016-11-18T14:09:30.149Z,65.99
2016-11-18T14:10:43.915Z,65.99
2016-11-18T14:11:57.655Z,65.7
2016-11-18T14:13:11.415Z,65.8
2016-11-18T14:14:24.094Z,65.89
2016-11-18T14:15:37.794Z,66.09
2016-11-18T14:16:51.512Z,66.38
2016-11-18T14:18:05.242Z,66.56
2016-11-18T14:19:18.983Z,66.53
2016-11-18T14:20:32.737Z,66.56
2016-11-18T14:21:46.452Z,66.56
2016-11-18T14:23:00.164Z,65.67
2016-11-18T14:24:13.860Z,65.77
2016-11-18T14:25:27.566Z,65.61
2016-11-18T14:26:41.442Z,65.67
2016-11-18T14:27:55.176Z,65.58
2016-11-18T14:29:08.939Z,65.67
2016-11-18T14:30:22.741Z,65.58
2016-11-18T14:31:36.446Z,66.09
2016-11-18T14:32:50.206Z,65.67
2016-11-18T14:34:03.920Z,65.39
2016-11-18T14:35:17.769Z,66.72
2016-11-18T14:36:31.486Z,66.53
2016-11-18T14:37:45.210Z,66.44
2016-11-18T14:38:58.928Z,66.05
2016-11-18T14:40:12.647Z,66.05
2016-11-18T14:41:26.352Z,65.77
2016-11-18T14:42:40.068Z,66.05
2016-11-18T14:43:54.028Z,66.53
2016-11-18T14:45:07.745Z,66.91
2016-11-18T14:46:21.470Z,66.91
2016-11-18T14:47:35.178Z,69.48
2016-11-18T14:48:48.887Z,69.68
2016-11-18T14:50:02.607Z,71.58
2016-11-18T14:51:16.682Z,75.3
2016-11-18T14:52:30.403Z,74.63
2016-11-18T14:53:44.395Z,73.74
2016-11-18T14:54:58.171Z,74.69
2016-11-18T14:56:11.887Z,74.5
2016-11-18T14:57:25.641Z,75.64
2016-11-18T14:58:39.349Z,74.98
2016-11-18T14:59:53.072Z,74.27
2016-11-18T15:01:06.799Z,75.13
2016-11-18T15:02:20.621Z,75.6
2016-11-18T15:03:34.559Z,75.23
2016-11-18T15:04:48.542Z,74.46
2016-11-18T15:06:02.250Z,73.8
2016-11-18T15:07:15.957Z,74.37
2016-11-18T15:08:29.665Z,73.41
2016-11-18T15:09:43.388Z,74.37
2016-11-18T15:10:57.099Z,74.65
2016-11-18T15:12:10.828Z,75.13
2016-11-18T15:13:24.867Z,74.8
2016-11-18T15:14:38.583Z,74.52
2016-11-18T15:15:52.322Z,74.43
2016-11-18T15:17:06.076Z,75.95
2016-11-18T15:18:19.789Z,76.9
2016-11-18T15:19:33.829Z,77
2016-11-18T15:20:47.557Z,77.66
2016-11-18T15:22:01.268Z,78.33
2016-11-18T15:23:15.223Z,78.71
2016-11-18T15:24:28.932Z,79.57
2016-11-18T15:25:41.351Z,78.71
2016-11-18T15:26:55.140Z,79.81
2016-11-18T15:28:08.890Z,80.86
2016-11-18T15:29:22.643Z,79.72
2016-11-18T15:30:36.360Z,79.43
2016-11-18T15:31:50.094Z,78.86
2016-11-18T15:33:03.816Z,79.43
2016-11-18T15:34:17.665Z,78.29
2016-11-18T15:35:31.632Z,78.19
2016-11-18T15:36:44.046Z,77.24
2016-11-18T15:37:57.904Z,78
2016-11-18T15:39:11.663Z,77.72
2016-11-18T15:40:25.376Z,77.15
2016-11-18T15:41:37.887Z,77.39
2016-11-18T15:42:50.438Z,76.86
2016-11-18T15:44:04.145Z,76.63
2016-11-18T15:45:18.002Z,76.48
2016-11-18T15:46:31.737Z,75.96
2016-11-18T15:47:44.176Z,76.01
2016-11-18T15:48:56.611Z,75.72
2016-11-18T15:50:10.397Z,76.29